Independence, IA (50644)

9:22 AM CDT on August 31, 2015 (GMT -0500)
Terrace Drive SE | | Change Station
CLOSE
Current Station
Personal Weather Station
Location: Independence, IA
Elevation: 940 ft
Nearby Weather Stations

Elev 940 ft 42.47 °N, 91.88 °W | Updated 8 seconds ago

Fog
Fog
67.1 °F
Feels Like 67.1 °F
N
0.0
Wind Variable Wind from WSW
Gusts 1.0 mph

Today
High -- | Low -- °F
--% Chance of Precip.
Yesterday
High -- | Low -- °F
Precip. -- in
6:31 AM 7:43 PM
Waning Gibbous, 95% visible
Pressure 30.04 in
Visibility 2.5 miles
Clouds
Dew Point 67 °F
Humidity 98%
Rainfall 0.00 in
Snow Depth Not available.
UV Not available.
Pollen 10.80 out of 12
Air Quality Not available.
Flu Activity Not available.
METAR KOLZ 311355Z AUTO 16007KT 2 1/2SM BR 19/19 A3004 RMK AO2
Pressure 30.04 in
Visibility 2.5 miles
Clouds
Dew Point 67 °F
Humidity 98%
Rainfall 0.00 in
Snow Depth Not available.
UV Not available.
Pollen 10.80 out of 12
Air Quality Not available.
Flu Activity Not available.
METAR KOLZ 311355Z AUTO 16007KT 2 1/2SM BR 19/19 A3004 RMK AO2

10-Day Weather Forecast

×

Almanac

Astronomy

Aug. 31, 2015 Rise Set
Actual Time
Civil Twilight
Nautical Twilight
Astronomical Twilight
Moon
Length of Visible Light
Length of Day
Tomorrow will be .
, % of the Moon is Illuminated

Today's Extremes

State Highs State Lows

Community

WunderPhotos

Upload Photos

1,851,248 photos uploaded!

WunderBlogs® & News

Nearby

Air Quality

  Air Quality AQ Index Pollutant
Not available.

Snow Depth

Station Depth Elevation

Earthquake Activity

City Distance Mag. Time & Date
Minimum magnitude displayed is 2.5.

Coastal Water Temperatures

Place Temperature

Stations

Nearby Weather Stations

Station Location Temp. Windchill Dew Point Humidity Wind Precip. Elev Updated Type